You are not logged in, Click here to log in
新加坡樟宜機場SIN / WSSS 新加坡樟宜
ICAO: WSSS Country: 新加坡樟宜
Latitude: 1.36442 Longitude: 103.992
Total Arrivals: 89 Total Departures: 85
Latest Arrival: SQ11859 (VHHH-WSSS)YunJie. CHEN Latest Departure: CX734 (WSSS-VHHH)YunJie. CHEN
Scenery:
METAR : WSSS 190400Z 02008KT 310V080 9999 SCT016 FEW017TCU SCT300 29/23 Q1014 NOSIG

新加坡樟宜機場SIN

You are accessing this site from IP address 35.175.113.29. Virtual Airline. CMS by phpVMS.Website designed by Zumeweb and edited by Theo Bearman.
There is 0 User(s) Online: | and 9 Guest(s) Online.
All information on this site is for fight simulation purposes only. This site is for flight logging for pilots of Virtual Airline&模擬飛行論壇 FlySim only.